Time;durP1;ratioP1;P1;durP2;ratioP2;P2;SDS_P1;SDS_P2;PMS_P1;PMS_P2;Temp;Humidity;BMP_temperature;BMP_pressure;BME280_temperature;BME280_humidity;BME280_pressure;Samples;Min_cycle;Max_cycle;Signal;HPM_P1;HPM_P2
2023/03/06 00:01:47;;;;;;;51.13;25.00;;;6.00;99.90;;;;;;4895659;29;20243;-72
2023/03/06 00:04:14;;;;;;;38.90;22.70;;;6.00;99.90;;;;;;4891293;29;20181;-73
2023/03/06 00:06:39;;;;;;;38.40;22.93;;;5.90;99.90;;;;;;4892022;29;20961;-73
2023/03/06 00:09:05;;;;;;;40.23;23.70;;;6.00;99.90;;;;;;4895234;29;20437;-72
2023/03/06 00:11:30;;;;;;;36.17;23.43;;;5.90;99.90;;;;;;4893119;29;20184;-72
2023/03/06 00:13:56;;;;;;;36.50;21.57;;;6.00;99.90;;;;;;4892934;29;20284;-72
2023/03/06 00:16:22;;;;;;;36.80;22.93;;;5.90;99.90;;;;;;4895005;29;20268;-72
2023/03/06 00:18:47;;;;;;;34.40;19.87;;;5.90;99.90;;;;;;4895334;29;20196;-73
2023/03/06 00:21:13;;;;;;;32.43;19.60;;;5.90;99.90;;;;;;4891325;29;20286;-73
2023/03/06 00:23:40;;;;;;;28.97;19.00;;;5.90;99.90;;;;;;4892795;29;20522;-73
2023/03/06 00:26:07;;;;;;;31.33;18.27;;;5.90;99.90;;;;;;4895267;29;20268;-73
2023/03/06 00:28:33;;;;;;;29.73;20.10;;;5.90;99.90;;;;;;4891493;29;20460;-72
2023/03/06 00:30:59;;;;;;;28.30;18.80;;;5.90;99.90;;;;;;4892470;29;20476;-73
2023/03/06 00:33:25;;;;;;;31.33;19.27;;;5.90;99.90;;;;;;4894991;29;20472;-73
2023/03/06 00:35:50;;;;;;;27.77;18.83;;;5.90;99.90;;;;;;4892827;29;20460;-74
2023/03/06 00:38:16;;;;;;;26.67;18.70;;;5.90;99.90;;;;;;4890729;29;20181;-73
2023/03/06 00:40:42;;;;;;;26.70;18.03;;;5.80;99.90;;;;;;4883338;29;20189;-73
2023/03/06 00:43:07;;;;;;;28.27;17.13;;;5.90;99.90;;;;;;4888799;29;20680;-73
2023/03/06 00:45:33;;;;;;;30.63;18.40;;;5.90;99.90;;;;;;4893990;29;20700;-73
2023/03/06 00:47:58;;;;;;;30.47;18.10;;;5.80;99.90;;;;;;4893443;29;20196;-73
2023/03/06 00:50:24;;;;;;;30.83;17.83;;;5.90;99.90;;;;;;4895719;29;20278;-76
2023/03/06 00:52:49;;;;;;;28.13;18.20;;;5.90;99.90;;;;;;4895197;29;20562;-72
2023/03/06 00:55:15;;;;;;;34.20;17.97;;;5.90;99.90;;;;;;4892808;29;20177;-73
2023/03/06 00:57:41;;;;;;;29.77;17.90;;;5.90;99.90;;;;;;4894343;29;20656;-72
2023/03/06 01:00:08;;;;;;;25.57;17.90;;;5.90;99.90;;;;;;4892253;29;20188;-72
2023/03/06 01:02:34;;;;;;;29.37;18.43;;;5.90;99.90;;;;;;4891185;29;20185;-72
2023/03/06 01:04:59;;;;;;;30.67;18.70;;;5.90;99.90;;;;;;4886434;29;20432;-72
2023/03/06 01:07:26;;;;;;;34.47;21.67;;;6.00;99.90;;;;;;4891450;29;20801;-73
2023/03/06 01:09:52;;;;;;;27.50;18.03;;;6.00;99.90;;;;;;4897299;29;20196;-72
2023/03/06 01:12:17;;;;;;;27.70;20.30;;;6.00;99.90;;;;;;4897614;29;20463;-72
2023/03/06 01:14:43;;;;;;;26.77;19.33;;;6.00;99.90;;;;;;4892227;29;20196;-71
2023/03/06 01:17:09;;;;;;;29.60;18.80;;;6.00;99.90;;;;;;4887206;29;20661;-72
2023/03/06 01:19:34;;;;;;;27.47;17.97;;;6.00;99.90;;;;;;4883587;29;20192;-72
2023/03/06 01:22:00;;;;;;;29.63;17.93;;;6.00;99.90;;;;;;4888477;29;20187;-72
2023/03/06 01:24:25;;;;;;;29.60;18.53;;;6.00;99.90;;;;;;4893717;29;20220;-72
2023/03/06 01:26:51;;;;;;;26.70;19.00;;;6.00;99.90;;;;;;4897644;29;20176;-72
2023/03/06 01:29:17;;;;;;;26.80;17.83;;;6.00;99.90;;;;;;4896096;29;20192;-72
2023/03/06 01:31:42;;;;;;;31.60;20.47;;;6.10;99.90;;;;;;4894572;29;20224;-72
2023/03/06 01:34:08;;;;;;;32.60;18.47;;;6.10;99.90;;;;;;4897725;29;20229;-72
2023/03/06 01:36:33;;;;;;;25.23;17.30;;;6.00;99.90;;;;;;4893685;29;20211;-73
2023/03/06 01:38:59;;;;;;;29.77;18.20;;;6.00;99.90;;;;;;4898390;29;20173;-73
2023/03/06 01:41:25;;;;;;;26.97;17.63;;;5.90;99.90;;;;;;4893389;29;20185;-73
2023/03/06 01:43:50;;;;;;;27.10;18.77;;;5.90;99.90;;;;;;4897004;29;20244;-72
2023/03/06 01:46:28;;;;;;;26.93;17.60;;;6.00;99.90;;;;;;4893850;29;20276;-72
2023/03/06 01:49:08;;;;;;;28.57;19.03;;;6.00;99.90;;;;;;4887262;29;20214;-72
2023/03/06 01:51:40;;;;;;;27.30;16.97;;;6.00;99.90;;;;;;4880871;29;20437;-72
2023/03/06 01:54:15;;;;;;;24.97;18.97;;;6.00;99.90;;;;;;4884104;29;20481;-72
2023/03/06 01:56:43;;;;;;;27.83;19.00;;;6.00;99.90;;;;;;4889583;29;20432;-72
2023/03/06 01:59:09;;;;;;;30.27;19.37;;;6.00;99.90;;;;;;4891546;29;20437;-72
2023/03/06 02:01:38;;;;;;;28.87;20.63;;;6.00;99.90;;;;;;4882271;29;20452;-72
2023/03/06 02:04:03;;;;;;;29.63;20.03;;;6.00;99.90;;;;;;4889582;29;20447;-72
2023/03/06 02:06:29;;;;;;;26.93;19.50;;;5.90;99.90;;;;;;4895337;29;20936;-75
2023/03/06 02:08:55;;;;;;;27.93;19.60;;;6.00;99.90;;;;;;4897156;29;20715;-75
2023/03/06 02:11:23;;;;;;;28.60;18.60;;;6.00;99.90;;;;;;4892250;29;20665;-75
2023/03/06 02:13:50;;;;;;;28.47;19.57;;;6.00;99.90;;;;;;4886999;29;20500;-75
2023/03/06 02:16:18;;;;;;;34.53;19.70;;;5.90;99.90;;;;;;4882250;29;20444;-75
2023/03/06 02:18:45;;;;;;;30.77;20.10;;;6.00;99.90;;;;;;4885527;29;20495;-73
2023/03/06 02:21:19;;;;;;;27.30;18.57;;;6.00;99.90;;;;;;4874114;29;20444;-74
2023/03/06 02:24:05;;;;;;;32.67;19.60;;;6.00;99.90;;;;;;4896784;29;20464;-74
2023/03/06 02:26:33;;;;;;;31.70;19.40;;;6.00;99.90;;;;;;4895367;29;20442;-74
2023/03/06 02:28:58;;;;;;;28.67;19.70;;;6.00;99.90;;;;;;4889188;29;20457;-74
2023/03/06 02:31:27;;;;;;;33.07;19.90;;;6.00;99.90;;;;;;4883518;29;20484;-75
2023/03/06 02:34:02;;;;;;;33.93;19.00;;;6.00;99.90;;;;;;4882278;29;20672;-73
2023/03/06 02:36:29;;;;;;;35.00;22.90;;;6.00;99.90;;;;;;4890671;29;20571;-73
2023/03/06 02:38:56;;;;;;;33.27;20.30;;;6.00;99.90;;;;;;4884998;29;20501;-73
2023/03/06 02:41:22;;;;;;;29.90;20.33;;;6.00;99.90;;;;;;4881242;29;20457;-73
2023/03/06 02:43:49;;;;;;;28.47;20.03;;;6.00;99.90;;;;;;4886519;29;20442;-73
2023/03/06 02:46:14;;;;;;;29.10;20.23;;;6.00;99.90;;;;;;4891535;29;20255;-73
2023/03/06 02:48:40;;;;;;;29.77;18.40;;;6.00;99.90;;;;;;4896741;29;20468;-73
2023/03/06 02:51:05;;;;;;;29.03;19.17;;;6.10;99.90;;;;;;4894553;29;20585;-73
2023/03/06 02:53:31;;;;;;;32.60;19.37;;;6.00;99.90;;;;;;4888967;29;20284;-74
2023/03/06 02:55:56;;;;;;;27.93;19.10;;;5.90;99.90;;;;;;4894025;29;20283;-74
2023/03/06 02:58:22;;;;;;;27.33;18.40;;;5.90;99.90;;;;;;4896341;29;20189;-74
2023/03/06 03:00:48;;;;;;;29.63;20.17;;;5.80;99.90;;;;;;4890892;29;20189;-74
2023/03/06 03:03:14;;;;;;;29.30;19.07;;;5.90;99.90;;;;;;4885567;29;20788;-75
2023/03/06 03:05:39;;;;;;;26.23;18.20;;;5.90;99.90;;;;;;4881144;29;20520;-72
2023/03/06 03:08:05;;;;;;;28.90;18.27;;;5.90;99.90;;;;;;4885099;29;20291;-73
2023/03/06 03:10:31;;;;;;;26.20;16.67;;;5.90;99.90;;;;;;4890593;29;20598;-73
2023/03/06 03:12:57;;;;;;;26.50;19.27;;;5.80;99.90;;;;;;4894555;29;20586;-72
2023/03/06 03:15:22;;;;;;;27.87;18.33;;;5.80;99.90;;;;;;4894424;29;20272;-74
2023/03/06 03:17:48;;;;;;;30.17;19.50;;;5.80;99.90;;;;;;4889426;29;20543;-73
2023/03/06 03:20:17;;;;;;;25.40;18.90;;;5.90;99.90;;;;;;4883932;29;20219;-73
2023/03/06 05:30:23;;;;;;;21.70;13.37;;;5.60;99.90;;;;;;5923210;23;20402;-72
2023/03/06 05:32:49;;;;;;;25.93;14.97;;;5.60;99.90;;;;;;4914134;29;20483;-72
2023/03/06 05:35:18;;;;;;;20.33;13.23;;;5.60;99.90;;;;;;4914483;29;20654;-75
2023/03/06 05:37:43;;;;;;;19.90;13.87;;;5.70;99.90;;;;;;4907125;29;20435;-72
2023/03/06 05:40:10;;;;;;;20.73;11.37;;;5.70;99.90;;;;;;4901683;29;20439;-72
2023/03/06 05:42:35;;;;;;;14.93;11.00;;;5.60;99.90;;;;;;4901886;29;20188;-72
2023/03/06 05:45:03;;;;;;;16.77;10.80;;;5.60;99.90;;;;;;4906692;29;20441;-72
2023/03/06 05:47:29;;;;;;;17.93;11.00;;;5.60;99.90;;;;;;4903237;29;20724;-71
2023/03/06 05:49:55;;;;;;;17.27;10.50;;;5.60;99.90;;;;;;4900180;29;20440;-71
2023/03/06 05:52:20;;;;;;;15.90;11.70;;;5.50;99.90;;;;;;4905263;29;20543;-71
2023/03/06 05:54:53;;;;;;;20.27;12.90;;;5.40;99.90;;;;;;4908002;29;20271;-72
2023/03/06 05:57:20;;;;;;;29.50;17.83;;;5.50;99.90;;;;;;4900159;29;20225;-72
2023/03/06 05:59:47;;;;;;;29.40;17.30;;;5.50;99.90;;;;;;4903118;29;20446;-73
2023/03/06 06:02:12;;;;;;;23.63;18.00;;;5.50;99.90;;;;;;4906895;29;20432;-73
2023/03/06 06:04:38;;;;;;;35.40;19.37;;;5.50;99.90;;;;;;4901843;29;20435;-72
2023/03/06 06:07:05;;;;;;;34.07;21.60;;;5.50;99.90;;;;;;4900819;29;20280;-72
2023/03/06 06:09:31;;;;;;;34.03;19.97;;;5.50;99.90;;;;;;4909294;29;20192;-72
2023/03/06 06:11:59;;;;;;;34.53;20.87;;;5.50;99.90;;;;;;4903510;29;20966;-72
2023/03/06 06:14:25;;;;;;;34.00;21.40;;;5.50;99.90;;;;;;4900015;29;20904;-72
2023/03/06 06:16:51;;;;;;;32.37;19.87;;;5.50;99.90;;;;;;4910491;29;20927;-72
2023/03/06 06:19:20;;;;;;;34.10;20.70;;;5.50;99.90;;;;;;4905585;29;20491;-77
2023/03/06 06:21:47;;;;;;;33.27;19.57;;;5.50;99.90;;;;;;4899922;29;20458;-70
2023/03/06 06:24:14;;;;;;;32.93;19.47;;;5.50;99.90;;;;;;4905527;29;20432;-71
2023/03/06 06:26:40;;;;;;;30.97;19.80;;;5.50;99.90;;;;;;4909113;29;20461;-71
2023/03/06 06:29:06;;;;;;;33.60;21.80;;;5.50;99.90;;;;;;4914530;29;20974;-72
2023/03/06 06:31:31;;;;;;;34.30;20.00;;;5.50;99.90;;;;;;4915055;29;20241;-71
2023/03/06 06:33:57;;;;;;;33.97;20.90;;;5.50;99.90;;;;;;4909477;29;20499;-74
2023/03/06 06:36:22;;;;;;;31.83;20.50;;;5.50;99.90;;;;;;4904451;29;20251;-73
2023/03/06 06:38:48;;;;;;;28.73;19.60;;;5.50;99.90;;;;;;4900310;29;20675;-72
2023/03/06 06:41:14;;;;;;;28.03;18.53;;;5.40;99.90;;;;;;4906763;29;20203;-72
2023/03/06 06:43:40;;;;;;;29.93;18.83;;;5.40;99.90;;;;;;4914163;29;20531;-72
2023/03/06 06:46:05;;;;;;;26.90;18.50;;;5.40;99.90;;;;;;4912701;29;20179;-72
2023/03/06 06:48:31;;;;;;;31.77;19.03;;;5.40;99.90;;;;;;4915564;29;20270;-72
2023/03/06 06:50:57;;;;;;;32.67;17.80;;;5.50;99.90;;;;;;4909112;29;20191;-72
2023/03/06 06:53:23;;;;;;;29.00;18.17;;;5.60;99.90;;;;;;4912899;29;20758;-72
2023/03/06 06:55:49;;;;;;;34.40;20.07;;;5.60;99.90;;;;;;4903801;29;20433;-74
2023/03/06 06:58:16;;;;;;;31.23;19.33;;;5.70;99.90;;;;;;4905115;29;20192;-72
2023/03/06 07:00:41;;;;;;;40.33;20.33;;;5.80;99.90;;;;;;4911053;29;20448;-71
2023/03/06 07:03:07;;;;;;;34.13;19.60;;;5.70;99.90;;;;;;4916154;29;20441;-71
2023/03/06 07:05:33;;;;;;;34.00;18.70;;;5.70;99.90;;;;;;4910679;29;20215;-71
2023/03/06 07:07:59;;;;;;;30.57;19.17;;;5.70;99.90;;;;;;4907353;29;20476;-71
2023/03/06 07:10:24;;;;;;;32.37;20.37;;;5.70;99.90;;;;;;4914509;29;20431;-71
2023/03/06 07:12:50;;;;;;;33.10;18.00;;;5.60;99.90;;;;;;4915396;29;20247;-72
2023/03/06 07:15:17;;;;;;;26.70;17.40;;;5.60;99.90;;;;;;4907251;29;20195;-71
2023/03/06 07:17:42;;;;;;;27.10;18.17;;;5.60;99.90;;;;;;4912331;29;20183;-72
2023/03/06 07:20:09;;;;;;;26.70;16.83;;;5.60;99.90;;;;;;4915213;29;20552;-71
2023/03/06 07:22:35;;;;;;;31.37;19.20;;;5.60;99.90;;;;;;4910156;29;20602;-70
2023/03/06 07:25:02;;;;;;;28.60;17.50;;;5.50;99.90;;;;;;4905001;29;20439;-71
2023/03/06 07:27:28;;;;;;;27.70;17.40;;;5.60;99.90;;;;;;4899821;29;20440;-71
2023/03/06 07:29:53;;;;;;;29.60;18.03;;;5.60;99.90;;;;;;4902959;29;20469;-71
2023/03/06 07:32:19;;;;;;;30.07;19.00;;;5.70;99.90;;;;;;4908085;29;20236;-71
2023/03/06 07:34:46;;;;;;;28.90;17.87;;;5.80;99.90;;;;;;4913576;29;20278;-71
2023/03/06 07:37:12;;;;;;;31.00;18.37;;;5.80;99.90;;;;;;4913810;29;20486;-71
2023/03/06 07:39:37;;;;;;;28.70;18.30;;;5.80;99.90;;;;;;4908427;29;20455;-71
2023/03/06 07:42:03;;;;;;;25.13;16.23;;;5.90;99.90;;;;;;4903319;29;20200;-70
2023/03/06 07:44:28;;;;;;;30.20;18.07;;;5.90;99.90;;;;;;4899244;29;20262;-71
2023/03/06 07:46:54;;;;;;;32.87;19.30;;;5.90;99.90;;;;;;4904189;29;20223;-70
2023/03/06 07:49:19;;;;;;;33.93;16.97;;;5.80;99.90;;;;;;4909588;29;20196;-70
2023/03/06 07:51:45;;;;;;;28.57;16.47;;;5.80;99.90;;;;;;4914597;29;20289;-71
2023/03/06 07:54:11;;;;;;;28.40;18.10;;;5.80;99.90;;;;;;4912756;29;20545;-70
2023/03/06 07:56:36;;;;;;;45.07;21.43;;;5.90;99.90;;;;;;4906680;29;20535;-71
2023/03/06 07:59:02;;;;;;;32.97;17.80;;;5.90;99.90;;;;;;4901535;29;20283;-70
2023/03/06 08:01:28;;;;;;;31.07;19.10;;;5.80;99.90;;;;;;4882564;29;20191;-69
2023/03/06 08:03:54;;;;;;;31.93;18.70;;;5.90;99.90;;;;;;4905254;29;20448;-69
2023/03/06 08:06:23;;;;;;;31.60;19.30;;;5.90;99.90;;;;;;4910413;29;20223;-75
2023/03/06 08:08:50;;;;;;;34.73;19.60;;;6.00;99.90;;;;;;4914717;29;20616;-69
2023/03/06 08:11:19;;;;;;;31.03;19.20;;;6.10;99.90;;;;;;4910794;29;20442;-68
2023/03/06 08:13:45;;;;;;;32.77;19.53;;;6.00;99.90;;;;;;4908811;29;20986;-68
2023/03/06 08:16:11;;;;;;;36.60;20.13;;;6.10;99.90;;;;;;4914175;29;20839;-69
2023/03/06 08:18:39;;;;;;;32.23;18.97;;;6.10;99.90;;;;;;4912332;29;20469;-68
2023/03/06 08:21:10;;;;;;;38.07;21.80;;;5.90;99.90;;;;;;4906962;29;20188;-69
2023/03/06 08:23:37;;;;;;;39.63;21.23;;;6.00;99.90;;;;;;4901057;29;20491;-69
2023/03/06 08:26:05;;;;;;;33.83;18.10;;;5.90;99.90;;;;;;4899502;29;20794;-69
2023/03/06 08:28:31;;;;;;;33.93;18.63;;;5.90;99.90;;;;;;4904771;29;20447;-69
2023/03/06 08:30:57;;;;;;;36.80;22.53;;;6.00;99.90;;;;;;4910653;29;20478;-69
2023/03/06 08:33:23;;;;;;;42.57;23.30;;;5.90;99.90;;;;;;4915324;29;20267;-69
2023/03/06 08:35:49;;;;;;;37.97;20.23;;;5.90;99.90;;;;;;4911028;29;20188;-69
2023/03/06 08:38:15;;;;;;;37.47;21.90;;;6.00;99.90;;;;;;4905245;29;20429;-69
2023/03/06 08:40:40;;;;;;;37.43;21.80;;;6.00;99.90;;;;;;4899416;29;20216;-69
2023/03/06 08:43:09;;;;;;;32.40;19.00;;;6.00;99.90;;;;;;4900639;29;20180;-69
2023/03/06 08:45:35;;;;;;;34.97;20.87;;;6.00;99.90;;;;;;4906519;29;20551;-69
2023/03/06 08:48:00;;;;;;;35.23;19.50;;;5.90;99.90;;;;;;4912487;29;20439;-69
2023/03/06 08:50:26;;;;;;;38.63;22.53;;;5.80;99.90;;;;;;4914260;29;20207;-69
2023/03/06 08:52:51;;;;;;;38.17;21.13;;;5.80;99.90;;;;;;4909105;29;20212;-69
2023/03/06 08:55:17;;;;;;;36.10;21.23;;;5.90;99.90;;;;;;4903122;29;20188;-69
2023/03/06 08:57:43;;;;;;;36.13;20.90;;;5.90;99.90;;;;;;4898797;29;20188;-69
2023/03/06 09:00:09;;;;;;;38.07;20.10;;;5.90;99.90;;;;;;4902022;29;20607;-69
2023/03/06 09:02:35;;;;;;;38.27;21.50;;;5.90;99.90;;;;;;4908010;29;20279;-69
2023/03/06 09:05:04;;;;;;;29.20;19.33;;;5.90;99.90;;;;;;4913502;29;20455;-68
2023/03/06 09:07:29;;;;;;;36.43;20.83;;;5.90;99.90;;;;;;4913041;29;20235;-69
2023/03/06 09:09:56;;;;;;;33.23;18.03;;;5.90;99.90;;;;;;4907540;29;20428;-69
2023/03/06 09:12:22;;;;;;;35.07;19.83;;;5.90;99.90;;;;;;4903079;29;20188;-71
2023/03/06 09:14:47;;;;;;;33.20;20.40;;;5.80;99.90;;;;;;4902007;29;20860;-71
2023/03/06 09:17:13;;;;;;;38.30;19.67;;;5.80;99.90;;;;;;4906944;29;20187;-71
2023/03/06 09:19:38;;;;;;;34.67;18.00;;;5.80;99.90;;;;;;4913010;29;20281;-73
2023/03/06 09:22:04;;;;;;;33.27;19.80;;;5.90;99.90;;;;;;4917768;29;20199;-73
2023/03/06 09:24:30;;;;;;;34.27;17.70;;;6.00;99.90;;;;;;4915182;29;20184;-73
2023/03/06 09:26:55;;;;;;;27.83;17.23;;;6.00;99.90;;;;;;4909075;29;20196;-73
2023/03/06 09:29:21;;;;;;;36.80;19.10;;;6.00;99.90;;;;;;4902694;29;20547;-73
2023/03/06 09:31:47;;;;;;;29.93;19.03;;;6.10;99.90;;;;;;4902254;29;20607;-73
2023/03/06 09:34:12;;;;;;;28.10;17.23;;;6.00;99.90;;;;;;4908225;29;20571;-73
2023/03/06 09:36:38;;;;;;;30.37;19.30;;;6.00;99.90;;;;;;4913919;29;20432;-73
2023/03/06 09:39:03;;;;;;;29.40;19.50;;;6.00;99.90;;;;;;4903882;29;20215;-72
2023/03/06 09:41:39;;;;;;;26.27;15.27;;;6.00;99.90;;;;;;4910315;29;20643;-70
2023/03/06 09:44:26;;;;;;;31.00;18.17;;;6.10;99.90;;;;;;4907175;29;20192;-70
2023/03/06 09:47:19;;;;;;;29.13;17.00;;;6.10;99.90;;;;;;4915109;29;20482;-71
2023/03/06 09:49:50;;;;;;;31.43;19.57;;;6.10;99.90;;;;;;4912675;29;20440;-71
2023/03/06 09:52:35;;;;;;;30.27;16.67;;;6.10;99.90;;;;;;4906504;29;20437;-71
2023/03/06 09:55:11;;;;;;;29.83;19.03;;;6.20;99.90;;;;;;4917447;29;20518;-70
2023/03/06 09:57:54;;;;;;;30.83;19.40;;;6.20;99.90;;;;;;4913480;29;20439;-71
2023/03/06 10:01:05;;;;;;;28.07;18.10;;;6.20;99.90;;;;;;4911097;29;20431;-71
2023/03/06 10:03:57;;;;;;;22.70;17.17;;;6.30;99.90;;;;;;4881541;29;20534;-71
2023/03/06 10:06:29;;;;;;;27.50;15.27;;;6.20;99.90;;;;;;4867962;29;20439;-71
2023/03/06 10:09:04;;;;;;;28.27;16.90;;;6.30;99.90;;;;;;4912053;29;20958;-71
2023/03/06 10:12:03;;;;;;;32.77;19.23;;;6.30;99.90;;;;;;4916839;29;20427;-71
2023/03/06 10:14:52;;;;;;;33.37;21.17;;;6.50;99.90;;;;;;4912077;29;20823;-71
2023/03/06 10:17:21;;;;;;;25.97;16.93;;;6.50;99.90;;;;;;4905788;29;20433;-71
2023/03/06 10:19:47;;;;;;;27.53;18.67;;;6.60;99.90;;;;;;4916533;29;20450;-71
2023/03/06 10:22:21;;;;;;;35.00;19.33;;;6.60;99.90;;;;;;4912686;29;20507;-71
2023/03/06 10:25:08;;;;;;;31.47;19.97;;;6.50;99.90;;;;;;4906833;29;20286;-71
2023/03/06 10:27:36;;;;;;;32.57;17.80;;;6.60;99.90;;;;;;4916357;29;20515;-71
2023/03/06 10:30:17;;;;;;;31.80;20.10;;;6.50;99.90;;;;;;4913322;29;20427;-71
2023/03/06 10:33:06;;;;;;;34.60;21.40;;;6.70;99.90;;;;;;4906730;29;20502;-72
2023/03/06 10:35:48;;;;;;;38.57;20.67;;;6.60;99.90;;;;;;4901047;29;20441;-71
2023/03/06 10:38:24;;;;;;;28.50;19.10;;;6.60;99.90;;;;;;4910293;29;20519;-72
2023/03/06 10:40:53;;;;;;;32.10;21.27;;;6.60;99.90;;;;;;4909166;29;20494;-71
2023/03/06 10:43:20;;;;;;;33.37;22.10;;;6.60;99.90;;;;;;4915473;29;20432;-71
2023/03/06 10:45:49;;;;;;;41.37;19.43;;;6.70;99.90;;;;;;4914761;29;20441;-71
2023/03/06 10:48:22;;;;;;;33.37;21.30;;;6.70;99.90;;;;;;4908639;29;20963;-71
2023/03/06 10:50:48;;;;;;;29.23;18.67;;;6.70;99.90;;;;;;4903011;29;20494;-68
2023/03/06 10:53:27;;;;;;;30.00;20.00;;;6.80;99.90;;;;;;4900121;29;20564;-68
2023/03/06 10:55:57;;;;;;;30.60;18.07;;;6.80;99.90;;;;;;4906176;29;20292;-68
2023/03/06 10:58:29;;;;;;;23.83;16.00;;;6.90;99.90;;;;;;4912286;29;20479;-68
2023/03/06 11:01:08;;;;;;;24.77;16.33;;;7.00;99.90;;;;;;4916155;29;20437;-68
2023/03/06 11:03:35;;;;;;;24.87;16.13;;;6.80;99.90;;;;;;4905114;29;20455;-71
2023/03/06 11:06:01;;;;;;;23.80;14.23;;;6.80;99.90;;;;;;4910431;29;20439;-71
2023/03/06 11:08:28;;;;;;;22.20;14.50;;;6.80;99.90;;;;;;4915410;29;20439;-72
2023/03/06 11:11:22;;;;;;;20.77;14.43;;;6.90;99.90;;;;;;4912699;29;20982;-72
2023/03/06 11:13:57;;;;;;;16.93;12.07;;;6.90;99.90;;;;;;4903531;29;21235;-72
2023/03/06 11:16:29;;;;;;;16.57;11.27;;;6.90;99.90;;;;;;4900250;29;20442;-71
2023/03/06 11:19:05;;;;;;;20.77;11.40;;;7.00;99.90;;;;;;4901760;29;20567;-71
2023/03/06 11:21:36;;;;;;;17.87;11.30;;;6.90;99.90;;;;;;4907433;29;20439;-71
2023/03/06 11:24:20;;;;;;;14.70;9.83;;;7.00;99.90;;;;;;4913813;29;20424;-72
2023/03/06 11:26:51;;;;;;;18.90;12.07;;;6.90;99.90;;;;;;4914061;29;20439;-72
2023/03/06 11:29:41;;;;;;;17.20;11.23;;;6.90;99.90;;;;;;4907712;29;20436;-70
2023/03/06 11:32:27;;;;;;;19.23;12.67;;;6.90;99.90;;;;;;4901396;29;20914;-71
2023/03/06 11:35:08;;;;;;;18.93;12.10;;;7.00;99.90;;;;;;4900157;29;20489;-72
2023/03/06 11:37:57;;;;;;;20.37;10.73;;;7.00;99.90;;;;;;4908099;29;20944;-71
2023/03/06 11:40:51;;;;;;;18.50;10.77;;;7.10;99.90;;;;;;4904102;29;20455;-71
2023/03/06 11:43:43;;;;;;;19.73;14.63;;;7.30;99.90;;;;;;4912957;29;20445;-70
2023/03/06 11:46:39;;;;;;;17.33;11.53;;;7.20;99.90;;;;;;4906131;29;20962;-71
2023/03/06 11:49:23;;;;;;;18.20;10.90;;;7.10;99.90;;;;;;4899806;29;20432;-71
2023/03/06 11:51:58;;;;;;;15.17;10.50;;;7.00;99.90;;;;;;4909755;29;20446;-73
2023/03/06 11:54:24;;;;;;;14.70;10.23;;;7.00;99.90;;;;;;4906174;29;20589;-72
2023/03/06 11:56:58;;;;;;;14.10;10.10;;;7.00;99.90;;;;;;4900514;29;20552;-72
2023/03/06 11:59:53;;;;;;;11.90;7.83;;;7.00;99.90;;;;;;4900367;29;20532;-73
2023/03/06 12:02:59;;;;;;;9.27;6.57;;;7.20;99.90;;;;;;4907560;29;20439;-72
2023/03/06 12:05:55;;;;;;;8.60;6.53;;;7.20;99.90;;;;;;4914359;29;20442;-72
2023/03/06 12:08:45;;;;;;;8.77;5.80;;;7.20;99.90;;;;;;4902325;29;20464;-73
2023/03/06 12:11:18;;;;;;;8.73;6.13;;;7.20;99.90;;;;;;4908720;29;20452;-71
2023/03/06 12:14:03;;;;;;;9.10;5.90;;;7.20;99.90;;;;;;4899280;29;20899;-71
2023/03/06 12:16:37;;;;;;;8.70;6.13;;;7.30;99.90;;;;;;4911941;29;20432;-73
2023/03/06 12:19:03;;;;;;;10.37;6.27;;;7.40;99.90;;;;;;4907925;29;20518;-71
2023/03/06 12:21:37;;;;;;;12.97;8.97;;;7.70;99.90;;;;;;4913595;29;20535;-71
2023/03/06 12:24:44;;;;;;;14.17;9.67;;;8.00;99.90;;;;;;4913834;29;20549;-71
2023/03/06 12:27:18;;;;;;;13.00;9.53;;;8.30;99.90;;;;;;4872419;29;20445;-71
2023/03/06 12:30:13;;;;;;;17.43;11.73;;;8.70;99.90;;;;;;4913677;29;20526;-71
2023/03/06 12:33:16;;;;;;;17.23;13.07;;;8.90;99.90;;;;;;4911755;29;20582;-71
2023/03/06 12:35:44;;;;;;;18.13;11.10;;;8.90;99.90;;;;;;4908284;29;20490;-71
2023/03/06 12:38:22;;;;;;;19.73;11.07;;;9.10;99.90;;;;;;4914341;29;20467;-71
2023/03/06 12:41:14;;;;;;;15.60;10.97;;;9.40;99.90;;;;;;4912166;29;20439;-71
2023/03/06 12:44:02;;;;;;;13.17;10.77;;;9.60;99.90;;;;;;4905439;29;20435;-71
2023/03/06 12:46:29;;;;;;;19.93;13.60;;;9.60;99.90;;;;;;4900945;29;20435;-71
2023/03/06 12:49:12;;;;;;;13.50;9.27;;;9.80;99.90;;;;;;4904291;29;20465;-71
2023/03/06 12:51:38;;;;;;;15.70;10.37;;;10.00;99.90;;;;;;4910592;29;20534;-71
2023/03/06 12:54:05;;;;;;;14.07;10.10;;;10.20;99.90;;;;;;4916543;29;20478;-71
2023/03/06 12:56:33;;;;;;;12.97;8.70;;;10.20;99.90;;;;;;4917124;29;20535;-71
2023/03/06 12:59:01;;;;;;;16.93;11.50;;;10.20;99.90;;;;;;4913577;29;20460;-71
2023/03/06 13:01:45;;;;;;;19.43;12.50;;;10.30;99.90;;;;;;4889606;29;20587;-71
2023/03/06 13:04:46;;;;;;;15.80;12.70;;;10.20;99.90;;;;;;4902453;29;20940;-70
2023/03/06 13:07:18;;;;;;;15.90;12.13;;;10.40;99.90;;;;;;4908295;29;20439;-71
2023/03/06 13:10:02;;;;;;;12.93;9.90;;;10.50;98.80;;;;;;4908497;29;20433;-71
2023/03/06 13:12:54;;;;;;;12.57;9.80;;;10.40;97.10;;;;;;4902346;29;20538;-71
2023/03/06 13:15:35;;;;;;;14.37;10.37;;;10.30;98.70;;;;;;4911538;29;20436;-72
2023/03/06 13:18:21;;;;;;;11.03;9.37;;;10.20;98.90;;;;;;4914843;29;20427;-72
2023/03/06 13:20:56;;;;;;;15.10;9.40;;;10.10;98.40;;;;;;4915463;29;20543;-71
2023/03/06 13:23:37;;;;;;;11.87;10.20;;;10.00;99.40;;;;;;4907930;29;20462;-72
2023/03/06 13:26:03;;;;;;;14.07;10.20;;;9.90;99.80;;;;;;4905688;29;20443;-71
2023/03/06 13:28:47;;;;;;;15.37;11.13;;;9.60;99.70;;;;;;4910912;29;20427;-72
2023/03/06 13:31:24;;;;;;;12.90;10.50;;;9.50;99.90;;;;;;4906735;29;20491;-69
2023/03/06 13:33:53;;;;;;;21.73;13.20;;;9.50;99.90;;;;;;4891199;29;20467;-69
2023/03/06 13:36:30;;;;;;;16.60;11.30;;;9.40;99.90;;;;;;4902075;29;20440;-68
2023/03/06 13:39:00;;;;;;;13.50;10.10;;;9.40;99.90;;;;;;4905593;29;20817;-69
2023/03/06 13:41:36;;;;;;;12.20;9.20;;;9.30;99.90;;;;;;4911522;29;20428;-70
2023/03/06 13:44:33;;;;;;;14.77;10.63;;;9.20;99.90;;;;;;4916963;29;20444;-68
2023/03/06 13:47:00;;;;;;;15.23;9.70;;;9.10;99.90;;;;;;4908628;29;20862;-72
2023/03/06 13:49:27;;;;;;;11.23;8.63;;;9.10;99.90;;;;;;4907428;29;20535;-72
2023/03/06 13:51:52;;;;;;;14.20;8.87;;;9.10;99.90;;;;;;4901649;29;20448;-72
2023/03/06 13:54:46;;;;;;;15.20;10.03;;;9.00;99.90;;;;;;4902251;29;20995;-73
2023/03/06 13:57:24;;;;;;;16.60;10.00;;;8.90;99.90;;;;;;4908036;29;20183;-72
2023/03/06 13:59:55;;;;;;;16.97;10.63;;;8.90;99.90;;;;;;4901826;29;20432;-72
2023/03/06 14:02:38;;;;;;;14.93;9.30;;;8.70;99.90;;;;;;4902469;29;20443;-72
2023/03/06 14:05:15;;;;;;;15.10;10.83;;;8.70;99.90;;;;;;4909058;29;20479;-72
2023/03/06 14:08:08;;;;;;;9.73;8.63;;;8.70;99.90;;;;;;4902672;29;20955;-72
2023/03/06 14:10:35;;;;;;;14.30;9.33;;;8.60;99.90;;;;;;4902555;29;20620;-72
2023/03/06 14:13:13;;;;;;;14.27;10.47;;;8.50;99.90;;;;;;4907714;29;20475;-72
2023/03/06 14:15:43;;;;;;;10.67;8.60;;;8.50;99.90;;;;;;4903641;29;20432;-72
2023/03/06 14:18:35;;;;;;;10.97;8.20;;;8.50;99.90;;;;;;4901547;29;20451;-72
2023/03/06 14:21:10;;;;;;;10.73;7.80;;;8.50;99.90;;;;;;4909835;29;20864;-72
2023/03/06 14:23:41;;;;;;;15.93;9.93;;;8.40;99.90;;;;;;4913445;29;20449;-72
2023/03/06 14:26:18;;;;;;;10.20;8.23;;;8.40;99.90;;;;;;4916665;29;20478;-72
2023/03/06 14:28:51;;;;;;;10.80;8.13;;;8.40;99.90;;;;;;4910770;29;20520;-72
2023/03/06 14:31:19;;;;;;;13.40;8.83;;;8.40;99.90;;;;;;4905059;29;20489;-72
2023/03/06 14:33:59;;;;;;;13.67;8.90;;;8.30;99.90;;;;;;4915887;29;20578;-72
2023/03/06 14:36:33;;;;;;;10.40;7.50;;;8.30;99.90;;;;;;4912036;29;20437;-72
2023/03/06 14:39:03;;;;;;;8.20;6.90;;;8.30;99.90;;;;;;4905481;29;20439;-72
2023/03/06 14:41:32;;;;;;;9.80;8.07;;;8.40;99.90;;;;;;4883952;29;20428;-72
2023/03/06 14:44:08;;;;;;;8.10;6.77;;;8.40;99.90;;;;;;4903493;29;20480;-72
2023/03/06 14:46:34;;;;;;;8.77;6.47;;;8.50;99.90;;;;;;4909151;29;20805;-72
2023/03/06 14:48:59;;;;;;;11.00;7.33;;;8.50;99.90;;;;;;4915237;29;20576;-72
2023/03/06 14:51:25;;;;;;;8.63;6.90;;;8.50;99.90;;;;;;4914699;29;20183;-72
2023/03/06 14:53:53;;;;;;;9.17;6.60;;;8.50;99.90;;;;;;4909101;29;20575;-72
2023/03/06 14:56:24;;;;;;;13.07;6.50;;;8.60;99.90;;;;;;4903091;29;20192;-72
2023/03/06 14:58:52;;;;;;;7.10;6.40;;;8.60;99.90;;;;;;4899942;29;20447;-72
2023/03/06 15:01:46;;;;;;;12.63;5.63;;;8.70;99.90;;;;;;4905247;29;20832;-72
2023/03/06 15:04:12;;;;;;;7.17;5.13;;;8.80;99.90;;;;;;4910097;29;20535;-72
2023/03/06 15:06:41;;;;;;;6.57;5.60;;;8.90;99.90;;;;;;4915941;29;20523;-72